createdAt,value
2023-04-06T05:01:12.129Z,25.00
2023-04-06T05:02:12.343Z,25.00
2023-04-06T05:03:12.223Z,25.00
2023-04-06T05:04:12.226Z,25.00
2023-04-06T05:05:12.271Z,25.00
2023-04-06T05:06:13.531Z,25.00
2023-04-06T05:07:12.274Z,0.00
2023-04-06T05:08:12.351Z,0.00
2023-04-06T05:09:12.356Z,0.00
2023-04-06T05:10:12.388Z,0.00
2023-04-06T05:11:12.367Z,0.00
2023-04-06T05:12:12.377Z,0.00
2023-04-06T05:13:12.446Z,0.00
2023-04-06T05:14:12.469Z,0.00
2023-04-06T05:15:12.547Z,0.00
2023-04-06T05:16:12.650Z,0.00
2023-04-06T05:17:12.620Z,0.00
2023-04-06T05:18:12.694Z,0.00
2023-04-06T05:19:12.714Z,0.00
2023-04-06T05:20:12.796Z,0.00
2023-04-06T05:21:12.858Z,0.00
2023-04-06T05:22:12.871Z,0.00
2023-04-06T05:23:12.907Z,0.00
2023-04-06T05:24:12.975Z,0.00
2023-04-06T05:25:13.042Z,0.00
2023-04-06T05:26:13.284Z,0.00
2023-04-06T05:27:13.145Z,0.00
2023-04-06T05:28:13.221Z,1.60
2023-04-06T05:29:13.286Z,23.86
2023-04-06T05:30:13.334Z,28.77
2023-04-06T05:31:13.393Z,28.47
2023-04-06T05:32:13.423Z,28.41
2023-04-06T05:33:13.493Z,26.27
2023-04-06T05:34:13.568Z,26.96
2023-04-06T05:35:13.613Z,26.33
2023-04-06T05:36:15.156Z,26.59
2023-04-06T05:37:13.705Z,25.14
2023-04-06T05:38:13.750Z,28.14
2023-04-06T05:39:13.811Z,25.40
2023-04-06T05:40:13.916Z,26.08
2023-04-06T05:41:13.935Z,26.69
2023-04-06T05:42:13.984Z,25.54
2023-04-06T05:43:14.055Z,26.46
2023-04-06T05:44:14.112Z,25.00
2023-04-06T05:45:14.207Z,29.83
2023-04-06T05:46:14.253Z,29.22
2023-04-06T05:47:14.269Z,25.81
2023-04-06T05:48:14.391Z,28.35
2023-04-06T05:49:14.366Z,27.87
2023-04-06T05:50:14.398Z,27.86
2023-04-06T05:51:14.470Z,27.13
2023-04-06T05:52:14.530Z,25.00
2023-04-06T05:53:14.588Z,25.44
2023-04-06T05:54:14.641Z,26.13
2023-04-06T05:55:14.708Z,28.92
2023-04-06T05:56:14.768Z,29.32
2023-04-06T05:57:14.792Z,26.81
2023-04-06T05:58:14.859Z,27.34
2023-04-06T05:59:14.941Z,28.13
2023-04-06T06:00:15.026Z,28.02
2023-04-06T06:01:14.997Z,31.00
2023-04-06T06:02:15.157Z,26.81
2023-04-06T06:03:15.152Z,27.54
2023-04-06T06:04:15.185Z,28.59
2023-04-06T06:05:15.323Z,29.18
2023-04-06T06:06:15.300Z,28.36
2023-04-06T06:07:15.338Z,25.00
2023-04-06T06:08:15.400Z,26.56
2023-04-06T06:09:15.509Z,30.05
2023-04-06T06:10:15.531Z,27.19
2023-04-06T06:11:15.608Z,31.92
2023-04-06T06:12:15.660Z,30.86
2023-04-06T06:13:15.798Z,27.03
2023-04-06T06:14:15.772Z,26.84
2023-04-06T06:15:15.832Z,29.92
2023-04-06T06:16:15.974Z,28.15
2023-04-06T06:17:15.973Z,27.01
2023-04-06T06:18:16.029Z,27.43
2023-04-06T06:19:16.087Z,26.87
2023-04-06T06:20:16.292Z,27.97
2023-04-06T06:21:16.202Z,25.08
2023-04-06T06:22:16.285Z,27.36
2023-04-06T06:23:16.327Z,33.34
2023-04-06T06:24:16.379Z,26.18
2023-04-06T06:25:16.468Z,26.44
2023-04-06T06:26:16.546Z,27.87
2023-04-06T06:27:16.557Z,27.66
2023-04-06T06:28:16.696Z,32.49
2023-04-06T06:29:16.703Z,29.69
2023-04-06T06:30:16.784Z,32.31
2023-04-06T06:31:16.906Z,32.99
2023-04-06T06:32:16.870Z,31.26
2023-04-06T06:33:16.956Z,36.08
2023-04-06T06:34:17.025Z,30.72
2023-04-06T06:35:17.318Z,33.83
2023-04-06T06:36:17.159Z,31.45
2023-04-06T06:37:17.247Z,29.96
2023-04-06T06:38:17.316Z,30.33
2023-04-06T06:39:17.304Z,35.29
2023-04-06T06:40:17.396Z,33.87
2023-04-06T06:41:17.424Z,31.15
2023-04-06T06:42:17.481Z,33.94
2023-04-06T06:43:17.594Z,33.56
2023-04-06T06:44:17.672Z,35.13
2023-04-06T06:45:17.713Z,30.86
2023-04-06T06:46:17.799Z,30.86
2023-04-06T06:47:17.810Z,32.45
2023-04-06T06:48:17.858Z,36.26
2023-04-06T06:49:17.936Z,31.11
2023-04-06T06:50:18.051Z,33.65
2023-04-06T06:51:18.033Z,32.57
2023-04-06T06:52:18.083Z,27.11
2023-04-06T06:53:18.161Z,26.89
2023-04-06T06:54:18.470Z,32.87
2023-04-06T06:55:18.249Z,29.02
2023-04-06T06:56:18.408Z,28.89
2023-04-06T06:57:18.362Z,29.09
2023-04-06T06:58:18.409Z,27.50
2023-04-06T06:59:18.502Z,29.97
2023-04-06T07:00:18.589Z,26.93
2023-04-06T07:01:18.713Z,29.89
2023-04-06T07:02:18.676Z,28.22
2023-04-06T07:03:18.715Z,28.81
2023-04-06T07:04:18.732Z,26.40
2023-04-06T07:05:27.570Z,25.00
2023-04-06T07:06:19.812Z,25.11
2023-04-06T07:07:18.763Z,25.57
2023-04-06T07:08:18.791Z,25.23
2023-04-06T07:09:18.787Z,27.52
2023-04-06T07:10:18.762Z,27.49
2023-04-06T07:11:18.768Z,25.00
2023-04-06T07:12:18.735Z,25.32
2023-04-06T07:13:18.758Z,27.32
2023-04-06T07:14:18.738Z,25.08
2023-04-06T07:15:18.754Z,25.06
2023-04-06T07:16:18.970Z,29.19
2023-04-06T07:17:18.794Z,33.65
2023-04-06T07:18:18.893Z,32.59
2023-04-06T07:19:18.901Z,27.34
2023-04-06T07:20:18.965Z,31.70
2023-04-06T07:21:19.014Z,26.53
2023-04-06T07:22:19.027Z,25.00
2023-04-06T07:23:19.061Z,30.43
2023-04-06T07:24:19.156Z,27.64
2023-04-06T07:25:19.245Z,28.90
2023-04-06T07:26:19.198Z,32.77
2023-04-06T07:27:19.253Z,33.53
2023-04-06T07:28:19.317Z,26.38
2023-04-06T07:29:19.360Z,31.05
2023-04-06T07:30:19.366Z,31.24
2023-04-06T07:31:19.503Z,29.66
2023-04-06T07:32:19.578Z,27.23
2023-04-06T07:33:19.582Z,26.70
2023-04-06T07:34:19.554Z,25.74
2023-04-06T07:35:19.660Z,30.37
2023-04-06T07:36:19.773Z,34.70
2023-04-06T07:37:19.717Z,31.25
2023-04-06T07:38:19.713Z,28.76
2023-04-06T07:39:19.791Z,29.43
2023-04-06T07:40:19.827Z,31.33
2023-04-06T07:41:19.870Z,42.29
2023-04-06T07:42:19.882Z,36.42
2023-04-06T07:43:19.946Z,29.50
2023-04-06T07:44:20.000Z,31.20
2023-04-06T07:45:20.001Z,30.60
2023-04-06T07:46:20.180Z,35.19
2023-04-06T07:47:20.138Z,40.79
2023-04-06T07:48:20.195Z,39.44
2023-04-06T07:49:20.196Z,35.80
2023-04-06T07:50:20.230Z,35.02
2023-04-06T07:51:20.267Z,33.71
2023-04-06T07:52:20.314Z,35.07
2023-04-06T07:53:20.395Z,34.05
2023-04-06T07:54:20.397Z,36.41
2023-04-06T07:55:20.442Z,34.35
2023-04-06T07:56:20.529Z,33.91
2023-04-06T07:57:20.560Z,37.17
2023-04-06T07:58:20.592Z,36.70
2023-04-06T07:59:20.670Z,39.04
2023-04-06T08:00:20.674Z,29.44
2023-04-06T08:01:20.780Z,33.46
2023-04-06T08:02:20.808Z,36.76
2023-04-06T08:03:20.894Z,46.80
2023-04-06T08:04:20.904Z,51.28
2023-04-06T08:05:20.869Z,56.37
2023-04-06T08:06:20.922Z,56.04
2023-04-06T08:07:20.920Z,57.16
2023-04-06T08:08:20.973Z,57.62
2023-04-06T08:09:20.987Z,60.07
2023-04-06T08:10:21.026Z,56.47
2023-04-06T08:11:21.059Z,54.61
2023-04-06T08:12:21.068Z,59.07
2023-04-06T08:13:21.082Z,61.68
2023-04-06T08:14:21.123Z,65.06
2023-04-06T08:15:21.107Z,65.30
2023-04-06T08:16:21.223Z,67.64
2023-04-06T08:17:21.173Z,67.39
2023-04-06T08:18:21.221Z,66.85
2023-04-06T08:19:21.201Z,66.07
2023-04-06T08:20:21.207Z,67.10
2023-04-06T08:21:21.255Z,69.42
2023-04-06T08:22:21.302Z,67.61
2023-04-06T08:23:21.271Z,72.20
2023-04-06T08:24:21.277Z,72.66
2023-04-06T08:25:21.282Z,71.51
2023-04-06T08:26:21.296Z,71.77
2023-04-06T08:27:21.318Z,73.17
2023-04-06T08:28:21.387Z,74.80
2023-04-06T08:29:21.349Z,74.61
2023-04-06T08:30:21.436Z,73.88
2023-04-06T08:31:21.405Z,75.53
2023-04-06T08:32:21.420Z,75.98
2023-04-06T08:33:21.417Z,73.57
2023-04-06T08:34:21.431Z,78.24
2023-04-06T08:35:21.478Z,75.47
2023-04-06T08:36:21.529Z,75.83
2023-04-06T08:37:21.452Z,77.81
2023-04-06T08:38:21.473Z,77.65
2023-04-06T08:39:21.517Z,80.57
2023-04-06T08:40:21.587Z,79.46
2023-04-06T08:41:21.539Z,79.84
2023-04-06T08:42:21.529Z,79.61
2023-04-06T08:43:21.595Z,78.65
2023-04-06T08:44:21.546Z,79.04
2023-04-06T08:45:21.599Z,79.39
2023-04-06T08:46:21.599Z,83.44
2023-04-06T08:47:24.545Z,79.53
2023-04-06T08:48:21.596Z,86.49
2023-04-06T08:49:21.586Z,84.37
2023-04-06T08:50:21.678Z,84.17
2023-04-06T08:51:21.560Z,84.61
2023-04-06T08:52:21.567Z,83.71
2023-04-06T08:53:24.074Z,85.01
2023-04-06T08:54:21.559Z,85.12
2023-04-06T08:55:21.596Z,85.38
2023-04-06T08:56:21.555Z,85.63
2023-04-06T08:57:21.542Z,84.76
2023-04-06T08:58:35.189Z,84.83
2023-04-06T08:59:22.552Z,85.32
2023-04-06T09:00:21.518Z,85.44
2023-04-06T09:01:21.547Z,86.39
2023-04-06T09:02:21.610Z,87.03
2023-04-06T09:03:21.623Z,86.60
2023-04-06T09:04:21.668Z,89.04
2023-04-06T09:05:21.457Z,87.57
2023-04-06T09:06:21.460Z,88.23
2023-04-06T09:07:21.469Z,90.28
2023-04-06T09:08:21.444Z,88.00
2023-04-06T09:09:24.201Z,89.51
2023-04-06T09:10:21.452Z,91.71
2023-04-06T09:11:21.457Z,90.41
2023-04-06T09:12:21.443Z,91.44
2023-04-06T09:13:21.432Z,91.35
2023-04-06T09:14:21.456Z,89.30
2023-04-06T09:15:24.177Z,89.96
2023-04-06T09:16:21.452Z,90.18
2023-04-06T09:17:21.407Z,90.15
2023-04-06T09:18:21.389Z,90.47
2023-04-06T09:19:21.378Z,90.14
2023-04-06T09:20:21.355Z,91.61
2023-04-06T09:21:23.812Z,94.08
2023-04-06T09:22:21.356Z,94.33
2023-04-06T09:23:21.366Z,93.49
2023-04-06T09:24:21.334Z,92.43
2023-04-06T09:25:21.357Z,92.67
2023-04-06T09:26:21.353Z,92.02
2023-04-06T09:27:21.399Z,92.93
2023-04-06T09:28:21.316Z,94.50
2023-04-06T09:29:21.308Z,93.63
2023-04-06T09:30:21.325Z,93.22
2023-04-06T09:31:21.350Z,92.79
2023-04-06T09:32:21.342Z,92.68
2023-04-06T09:33:21.258Z,94.23
2023-04-06T09:34:21.280Z,93.25
2023-04-06T09:35:21.325Z,95.15
2023-04-06T09:36:21.288Z,94.59
2023-04-06T09:37:21.248Z,96.62
2023-04-06T09:38:21.273Z,93.08
2023-04-06T09:39:21.234Z,97.16
2023-04-06T09:40:21.262Z,97.09
2023-04-06T09:41:21.238Z,93.15
2023-04-06T09:42:21.228Z,94.78
2023-04-06T09:43:21.217Z,95.33
2023-04-06T09:44:21.249Z,95.59
2023-04-06T09:45:21.226Z,97.73
2023-04-06T09:46:21.269Z,98.27
2023-04-06T09:47:21.234Z,97.70
2023-04-06T09:48:21.256Z,95.09
2023-04-06T09:49:21.199Z,94.18
2023-04-06T09:50:21.232Z,98.04
2023-04-06T09:51:21.174Z,97.75
2023-04-06T09:52:21.146Z,98.13
2023-04-06T09:53:21.150Z,98.36
2023-04-06T09:54:21.132Z,97.31
2023-04-06T09:55:21.194Z,97.75
2023-04-06T09:56:21.136Z,97.74
2023-04-06T09:57:21.130Z,97.22
2023-04-06T09:58:21.161Z,97.82
2023-04-06T09:59:21.147Z,99.47
2023-04-06T10:00:21.128Z,97.86
2023-04-06T10:01:21.128Z,96.11
2023-04-06T10:02:21.127Z,98.73
2023-04-06T10:03:21.244Z,97.30
2023-04-06T10:04:21.102Z,98.67
2023-04-06T10:05:21.106Z,100.32
2023-04-06T10:06:21.091Z,99.18
2023-04-06T10:07:21.065Z,98.92
2023-04-06T10:08:21.062Z,99.61
2023-04-06T10:09:21.060Z,97.73
2023-04-06T10:10:21.037Z,96.67
2023-04-06T10:11:21.040Z,94.16
2023-04-06T10:12:21.030Z,96.12
2023-04-06T10:13:21.015Z,95.55
2023-04-06T10:14:21.026Z,94.36
2023-04-06T10:15:22.983Z,95.17
2023-04-06T10:16:21.042Z,96.62
2023-04-06T10:17:21.030Z,93.55
2023-04-06T10:18:20.968Z,95.51
2023-04-06T10:19:20.999Z,94.35
2023-04-06T10:20:20.973Z,92.85
2023-04-06T10:21:21.915Z,91.66
2023-04-06T10:22:20.971Z,92.25
2023-04-06T10:23:20.953Z,92.72
2023-04-06T10:24:20.964Z,96.15
2023-04-06T10:25:20.955Z,91.08
2023-04-06T10:26:20.991Z,92.88
2023-04-06T10:27:21.025Z,94.02
2023-04-06T10:28:21.059Z,91.64
2023-04-06T10:29:21.108Z,94.87
2023-04-06T10:30:21.159Z,94.54
2023-04-06T10:31:21.148Z,93.52
2023-04-06T10:32:21.211Z,92.26
2023-04-06T10:33:21.255Z,95.09
2023-04-06T10:34:21.173Z,95.92
2023-04-06T10:35:21.215Z,94.26
2023-04-06T10:36:21.244Z,96.16
2023-04-06T10:37:21.288Z,95.29
2023-04-06T10:38:21.319Z,96.45
2023-04-06T10:39:21.331Z,97.25
2023-04-06T10:40:21.350Z,92.46
2023-04-06T10:41:21.379Z,96.32
2023-04-06T10:42:21.405Z,95.56
2023-04-06T10:43:21.477Z,95.89
2023-04-06T10:44:21.473Z,100.15
2023-04-06T10:45:21.519Z,94.39
2023-04-06T10:46:21.580Z,96.37
2023-04-06T10:47:21.641Z,95.95
2023-04-06T10:48:21.621Z,92.58
2023-04-06T10:49:21.732Z,95.50
2023-04-06T10:50:21.733Z,94.31
2023-04-06T10:51:21.782Z,95.23
2023-04-06T10:52:21.821Z,97.36
2023-04-06T10:53:21.850Z,95.35
2023-04-06T10:54:21.881Z,93.91
2023-04-06T10:55:21.975Z,95.66
2023-04-06T10:56:22.055Z,94.65
2023-04-06T10:57:22.135Z,97.04
2023-04-06T10:58:22.133Z,96.09
2023-04-06T10:59:22.312Z,97.80
2023-04-06T11:00:22.268Z,97.26
2023-04-06T11:01:22.418Z,96.60
2023-04-06T11:02:22.369Z,97.31
2023-04-06T11:03:22.464Z,96.54
2023-04-06T11:04:22.519Z,98.12
2023-04-06T11:05:22.546Z,97.36
2023-04-06T11:06:22.610Z,96.38
2023-04-06T11:07:22.680Z,95.15
2023-04-06T11:08:22.716Z,96.01
2023-04-06T11:09:22.801Z,96.44
2023-04-06T11:10:22.864Z,98.32
2023-04-06T11:11:22.907Z,93.98
2023-04-06T11:12:22.947Z,96.72
2023-04-06T11:13:23.031Z,97.06
2023-04-06T11:14:23.112Z,98.20
2023-04-06T11:15:23.161Z,98.56
2023-04-06T11:16:23.344Z,97.96
2023-04-06T11:17:23.260Z,96.74
2023-04-06T11:18:23.328Z,100.33
2023-04-06T11:19:23.375Z,98.53
2023-04-06T11:20:23.418Z,100.73
2023-04-06T11:21:23.473Z,98.33
2023-04-06T11:22:23.523Z,96.85
2023-04-06T11:23:23.591Z,99.85
2023-04-06T11:24:23.662Z,99.78
2023-04-06T11:25:23.712Z,99.06
2023-04-06T11:26:23.781Z,100.94
2023-04-06T11:27:23.842Z,96.09
2023-04-06T11:28:23.878Z,98.91
2023-04-06T11:29:23.946Z,98.75
2023-04-06T11:30:24.013Z,100.82
2023-04-06T11:31:24.082Z,97.18
2023-04-06T11:32:24.142Z,96.78
2023-04-06T11:33:24.127Z,98.15
2023-04-06T11:34:24.201Z,98.33
2023-04-06T11:35:24.275Z,96.92
2023-04-06T11:36:24.479Z,93.68
2023-04-06T11:37:25.078Z,101.09
2023-04-06T11:38:24.424Z,98.34
2023-04-06T11:39:24.455Z,98.88
2023-04-06T11:40:24.516Z,98.43
2023-04-06T11:41:24.656Z,99.41
2023-04-06T11:42:24.634Z,99.37
2023-04-06T11:43:24.646Z,99.51
2023-04-06T11:44:24.735Z,100.27
2023-04-06T11:45:24.762Z,98.59
2023-04-06T11:46:24.861Z,102.51
2023-04-06T11:47:24.915Z,98.58
2023-04-06T11:48:26.357Z,99.33
2023-04-06T11:49:24.971Z,98.95
2023-04-06T11:50:25.013Z,102.68
2023-04-06T11:51:25.080Z,102.19
2023-04-06T11:52:25.107Z,102.55
2023-04-06T11:53:25.178Z,102.66
2023-04-06T11:54:25.213Z,101.99
2023-04-06T11:55:25.262Z,102.31
2023-04-06T11:56:25.361Z,103.63
2023-04-06T11:57:25.411Z,104.42
2023-04-06T11:58:25.393Z,102.99
2023-04-06T11:59:25.500Z,103.23
2023-04-06T12:00:25.502Z,100.37
2023-04-06T12:01:25.560Z,104.10
2023-04-06T12:02:25.693Z,105.47
2023-04-06T12:03:25.768Z,103.46
2023-04-06T12:04:25.733Z,105.09
2023-04-06T12:05:25.712Z,102.77
2023-04-06T12:06:25.773Z,103.39
2023-04-06T12:07:25.817Z,104.46
2023-04-06T12:08:25.849Z,98.60
2023-04-06T12:09:25.921Z,96.15
2023-04-06T12:10:25.977Z,93.39
2023-04-06T12:11:26.010Z,104.63
2023-04-06T12:12:26.048Z,96.20
2023-04-06T12:13:26.075Z,90.69
2023-04-06T12:14:26.098Z,75.46
2023-04-06T12:15:26.201Z,75.72
2023-04-06T12:16:26.373Z,73.93
2023-04-06T12:17:26.342Z,71.51
2023-04-06T12:18:26.293Z,59.74
2023-04-06T12:19:26.395Z,47.62
2023-04-06T12:20:27.428Z,50.69
2023-04-06T12:21:26.471Z,43.48
2023-04-06T12:22:26.526Z,47.30
2023-04-06T12:23:26.560Z,37.22
2023-04-06T12:24:26.623Z,19.93
2023-04-06T12:25:26.644Z,25.00
2023-04-06T12:26:26.695Z,35.83
2023-04-06T12:27:26.769Z,33.77
2023-04-06T12:28:26.778Z,44.89
2023-04-06T12:29:26.876Z,45.41
2023-04-06T12:30:26.893Z,55.99
2023-04-06T12:31:27.006Z,32.75
2023-04-06T12:32:27.060Z,28.53
2023-04-06T12:33:27.131Z,32.98
2023-04-06T12:34:27.090Z,30.53
2023-04-06T12:35:27.158Z,32.51
2023-04-06T12:36:27.308Z,27.31
2023-04-06T12:37:27.270Z,39.14
2023-04-06T12:38:27.327Z,33.36
2023-04-06T12:39:27.408Z,43.72
2023-04-06T12:40:27.383Z,50.11
2023-04-06T12:41:27.445Z,74.02
2023-04-06T12:42:27.452Z,53.15
2023-04-06T12:43:27.509Z,64.33
2023-04-06T12:44:27.596Z,36.77
2023-04-06T12:45:27.596Z,57.60
2023-04-06T12:46:27.663Z,66.33
2023-04-06T12:47:27.778Z,69.24
2023-04-06T12:48:27.732Z,69.49
2023-04-06T12:49:27.774Z,45.76
2023-04-06T12:50:27.816Z,66.80
2023-04-06T12:51:27.916Z,64.22
2023-04-06T12:52:27.925Z,33.20
2023-04-06T12:53:27.952Z,55.57
2023-04-06T12:54:27.972Z,73.52
2023-04-06T12:55:28.002Z,85.58
2023-04-06T12:56:28.144Z,56.96
2023-04-06T12:57:28.091Z,63.08
2023-04-06T12:58:28.151Z,62.31
2023-04-06T12:59:28.289Z,59.71
2023-04-06T13:00:28.299Z,53.03
2023-04-06T13:01:28.262Z,79.52
2023-04-06T13:02:28.380Z,56.49
2023-04-06T13:03:28.320Z,57.74
2023-04-06T13:04:28.297Z,69.47
2023-04-06T13:05:29.544Z,44.15
2023-04-06T13:06:28.527Z,39.84
2023-04-06T13:07:29.183Z,34.79
2023-04-06T13:08:28.419Z,73.95
2023-04-06T13:09:28.445Z,19.02
2023-04-06T13:10:28.441Z,70.72
2023-04-06T13:11:28.906Z,25.00
2023-04-06T13:12:28.488Z,73.49
2023-04-06T13:13:28.532Z,108.49
2023-04-06T13:14:28.549Z,41.86
2023-04-06T13:15:28.551Z,103.85
2023-04-06T13:16:28.766Z,27.22
2023-04-06T13:17:28.667Z,104.02
2023-04-06T13:18:28.662Z,132.65
2023-04-06T13:19:28.676Z,117.16
2023-04-06T13:20:28.691Z,110.76
2023-04-06T13:21:28.699Z,91.16
2023-04-06T13:22:28.716Z,142.46
2023-04-06T13:23:28.752Z,103.03
2023-04-06T13:24:28.783Z,113.22
2023-04-06T13:25:28.804Z,39.93
2023-04-06T13:26:28.793Z,96.26
2023-04-06T13:27:28.898Z,72.45
2023-04-06T13:28:28.905Z,79.97
2023-04-06T13:29:28.897Z,97.84
2023-04-06T13:30:28.897Z,82.52
2023-04-06T13:31:29.006Z,55.42
2023-04-06T13:32:29.009Z,80.53
2023-04-06T13:33:28.973Z,90.06
2023-04-06T13:34:28.965Z,56.23
2023-04-06T13:35:28.983Z,109.80
2023-04-06T13:36:29.082Z,68.47
2023-04-06T13:37:29.028Z,137.24
2023-04-06T13:38:29.049Z,45.04
2023-04-06T13:39:29.081Z,116.46
2023-04-06T13:40:29.051Z,72.76
2023-04-06T13:41:29.076Z,106.82
2023-04-06T13:42:29.103Z,42.27
2023-04-06T13:43:29.092Z,40.93
2023-04-06T13:44:29.143Z,101.84
2023-04-06T13:45:29.217Z,87.53
2023-04-06T13:46:29.125Z,140.19
2023-04-06T13:47:29.189Z,96.34
2023-04-06T13:48:29.164Z,93.82
2023-04-06T13:49:29.180Z,61.84
2023-04-06T13:50:29.195Z,138.28
2023-04-06T13:51:29.191Z,73.97
2023-04-06T13:52:29.260Z,110.65
2023-04-06T13:53:29.254Z,80.82
2023-04-06T13:54:29.242Z,84.36
2023-04-06T13:55:29.247Z,78.49
2023-04-06T13:56:29.416Z,90.00
2023-04-06T13:57:29.390Z,129.64
2023-04-06T13:58:29.357Z,141.43
2023-04-06T14:00:29.382Z,122.45
2023-04-06T14:01:29.435Z,139.85
2023-04-06T14:02:29.656Z,145.95
2023-04-06T14:03:29.543Z,118.78
2023-04-06T14:04:29.462Z,100.84
2023-04-06T14:05:29.500Z,126.46
2023-04-06T14:06:31.730Z,93.44
2023-04-06T14:07:29.653Z,121.99
2023-04-06T14:08:29.684Z,77.15
2023-04-06T14:09:29.651Z,56.68
2023-04-06T14:10:29.687Z,97.98
2023-04-06T14:11:29.746Z,83.21
2023-04-06T14:12:29.712Z,85.20
2023-04-06T14:13:29.742Z,121.71
2023-04-06T14:14:29.757Z,121.11
2023-04-06T14:15:29.754Z,118.04
2023-04-06T14:16:29.854Z,127.09
2023-04-06T14:17:29.798Z,117.70
2023-04-06T14:18:29.802Z,146.34
2023-04-06T14:19:29.797Z,165.81
2023-04-06T14:20:31.475Z,152.42
2023-04-06T14:21:29.828Z,155.81
2023-04-06T14:23:29.812Z,177.14
2023-04-06T14:24:29.829Z,165.27
2023-04-06T14:25:29.842Z,191.07
2023-04-06T14:26:29.837Z,187.21
2023-04-06T14:27:29.852Z,179.49
2023-04-06T14:28:29.814Z,181.42
2023-04-06T14:29:29.847Z,180.07
2023-04-06T14:30:29.857Z,191.85
2023-04-06T14:31:29.818Z,180.37
2023-04-06T14:32:29.859Z,180.85
2023-04-06T14:33:29.849Z,192.00
2023-04-06T14:34:29.812Z,196.52
2023-04-06T14:35:29.868Z,197.68
2023-04-06T14:36:29.896Z,206.73
2023-04-06T14:37:29.867Z,200.67
2023-04-06T14:38:29.837Z,204.04
2023-04-06T14:39:29.865Z,206.20
2023-04-06T14:40:29.885Z,209.93
2023-04-06T14:41:29.870Z,210.40
2023-04-06T14:42:29.879Z,201.52
2023-04-06T14:43:29.889Z,197.81
2023-04-06T14:44:29.884Z,213.46
2023-04-06T14:45:29.880Z,214.72
2023-04-06T14:46:29.923Z,211.02
2023-04-06T14:47:29.940Z,209.54
2023-04-06T14:48:29.887Z,199.25
2023-04-06T14:49:29.879Z,206.26
2023-04-06T14:50:29.891Z,205.12
2023-04-06T14:51:29.881Z,192.45
2023-04-06T14:52:31.976Z,196.91
2023-04-06T14:53:29.895Z,220.60
2023-04-06T14:54:29.860Z,236.13
2023-04-06T14:55:29.860Z,239.48
2023-04-06T14:56:29.820Z,241.84
2023-04-06T14:57:29.860Z,238.55
2023-04-06T14:58:29.842Z,240.95
2023-04-06T15:00:29.854Z,242.01
2023-04-06T15:01:29.913Z,243.68
2023-04-06T15:02:29.963Z,242.46
2023-04-06T15:03:29.848Z,239.98
2023-04-06T15:04:29.966Z,234.17
2023-04-06T15:05:29.798Z,232.66
2023-04-06T15:06:29.767Z,229.02
2023-04-06T15:07:29.782Z,225.78
2023-04-06T15:08:29.756Z,239.51
2023-04-06T15:09:29.726Z,245.91
2023-04-06T15:10:29.755Z,245.22
2023-04-06T15:11:29.763Z,250.00
2023-04-06T15:12:29.750Z,245.38
2023-04-06T15:13:29.726Z,241.67
2023-04-06T15:14:29.695Z,244.08
2023-04-06T15:15:29.706Z,239.85
2023-04-06T15:16:29.817Z,236.14
2023-04-06T15:17:29.712Z,232.83
2023-04-06T15:18:29.668Z,238.48
2023-04-06T15:19:29.735Z,241.27
2023-04-06T15:20:29.675Z,239.45
2023-04-06T15:21:29.661Z,240.98
2023-04-06T15:22:29.661Z,249.08
2023-04-06T15:23:29.631Z,246.73
2023-04-06T15:24:29.654Z,242.38
2023-04-06T15:25:29.621Z,246.23
2023-04-06T15:26:29.659Z,249.91
2023-04-06T15:27:29.656Z,248.15
2023-04-06T15:28:29.621Z,247.72
2023-04-06T15:29:29.606Z,245.78
2023-04-06T15:30:29.619Z,241.54
2023-04-06T15:31:37.757Z,243.24
2023-04-06T15:32:30.674Z,243.37
2023-04-06T15:33:29.565Z,244.25
2023-04-06T15:34:29.605Z,246.51
2023-04-06T15:35:29.660Z,247.58
2023-04-06T15:36:29.568Z,249.36
2023-04-06T15:37:29.525Z,243.10
2023-04-06T15:38:29.536Z,242.18
2023-04-06T15:39:29.553Z,240.26
2023-04-06T15:40:29.511Z,248.37
2023-04-06T15:41:29.512Z,238.37
2023-04-06T15:42:29.567Z,244.76
2023-04-06T15:43:29.516Z,246.31
2023-04-06T15:44:29.517Z,238.05
2023-04-06T15:45:29.489Z,246.16
2023-04-06T15:46:29.489Z,238.87
2023-04-06T15:47:29.482Z,245.75
2023-04-06T15:48:29.447Z,236.27
2023-04-06T15:49:29.471Z,244.11
2023-04-06T15:50:29.460Z,245.99
2023-04-06T15:51:29.420Z,238.73
2023-04-06T15:52:29.436Z,236.03
2023-04-06T15:53:29.417Z,241.32
2023-04-06T15:54:29.433Z,235.26
2023-04-06T15:55:29.481Z,238.93
2023-04-06T15:56:29.555Z,241.22
2023-04-06T15:57:29.501Z,241.72
2023-04-06T15:58:29.512Z,240.28
2023-04-06T15:59:29.546Z,237.29
2023-04-06T16:00:29.551Z,239.44
2023-04-06T16:01:29.646Z,237.49
2023-04-06T16:02:29.693Z,234.44
2023-04-06T16:03:29.635Z,242.57
2023-04-06T16:04:29.744Z,239.36
2023-04-06T16:05:30.485Z,235.89
2023-04-06T16:06:29.693Z,242.08
2023-04-06T16:07:29.714Z,241.15
2023-04-06T16:08:29.745Z,240.27
2023-04-06T16:09:29.762Z,242.95
2023-04-06T16:10:29.782Z,232.10
2023-04-06T16:11:29.789Z,238.34
2023-04-06T16:12:29.801Z,237.40
2023-04-06T16:13:29.873Z,236.52
2023-04-06T16:14:29.894Z,239.52
2023-04-06T16:15:29.889Z,238.20
2023-04-06T16:16:30.059Z,234.73
2023-04-06T16:17:30.045Z,229.31
2023-04-06T16:18:29.996Z,236.98
2023-04-06T16:19:30.026Z,229.97
2023-04-06T16:20:30.031Z,235.64
2023-04-06T16:21:30.082Z,224.29
2023-04-06T16:22:30.116Z,239.05
2023-04-06T16:23:30.132Z,228.84
2023-04-06T16:24:30.148Z,236.01
2023-04-06T16:25:30.205Z,238.78
2023-04-06T16:26:30.258Z,227.61
2023-04-06T16:27:30.254Z,228.90
2023-04-06T16:28:30.330Z,231.96
2023-04-06T16:29:30.303Z,234.13
2023-04-06T16:30:30.359Z,237.21
2023-04-06T16:31:30.492Z,234.18
2023-04-06T16:32:30.420Z,227.42
2023-04-06T16:33:30.471Z,231.75
2023-04-06T16:34:30.477Z,234.33
2023-04-06T16:35:30.576Z,224.00
2023-04-06T16:36:30.675Z,238.28
2023-04-06T16:37:30.597Z,235.79
2023-04-06T16:38:30.631Z,232.86
2023-04-06T16:39:30.657Z,232.83
2023-04-06T16:40:30.686Z,229.40
2023-04-06T16:41:30.773Z,223.57
2023-04-06T16:42:30.791Z,223.90
2023-04-06T16:43:30.822Z,228.44
2023-04-06T16:44:30.819Z,226.73
2023-04-06T16:45:30.913Z,225.38
2023-04-06T16:46:30.896Z,223.81
2023-04-06T16:47:30.961Z,223.81
2023-04-06T16:48:30.949Z,228.81
2023-04-06T16:49:30.968Z,229.77
2023-04-06T16:50:31.028Z,231.10
2023-04-06T16:51:31.070Z,228.88
2023-04-06T16:52:31.086Z,225.00
2023-04-06T16:53:31.113Z,225.49
2023-04-06T16:54:31.174Z,223.72
2023-04-06T16:55:31.197Z,230.88
2023-04-06T16:56:31.449Z,229.82
2023-04-06T16:57:31.252Z,224.66
2023-04-06T16:58:31.306Z,221.22
2023-04-06T16:59:31.349Z,223.15
2023-04-06T17:00:31.348Z,216.57
